sensor_id;sensor_type;location;lat;lon;timestamp;pressure;altitude;pressure_sealevel;temperature;humidity
55291;BME280;41155;39.768;2.712;2023-04-23T00:01:29;100878.88;;;17.09;71.81
55291;BME280;41155;39.768;2.712;2023-04-23T00:03:59;100892.22;;;17.11;72.22
55291;BME280;41155;39.768;2.712;2023-04-23T00:06:25;100894.16;;;17.10;72.20
55291;BME280;41155;39.768;2.712;2023-04-23T00:08:52;100898.78;;;17.10;72.54
55291;BME280;41155;39.768;2.712;2023-04-23T00:11:18;100886.28;;;17.04;72.28
55291;BME280;41155;39.768;2.712;2023-04-23T00:13:44;100899.38;;;17.07;72.35
55291;BME280;41155;39.768;2.712;2023-04-23T00:16:12;100912.44;;;17.10;72.44
55291;BME280;41155;39.768;2.712;2023-04-23T00:18:38;100915.00;;;17.01;72.15
55291;BME280;41155;39.768;2.712;2023-04-23T00:21:03;100919.38;;;16.97;72.05
55291;BME280;41155;39.768;2.712;2023-04-23T00:23:29;100920.94;;;17.03;71.24
55291;BME280;41155;39.768;2.712;2023-04-23T00:25:54;100924.97;;;17.11;70.87
55291;BME280;41155;39.768;2.712;2023-04-23T00:28:20;100923.63;;;17.08;70.99
55291;BME280;41155;39.768;2.712;2023-04-23T00:30:45;100920.94;;;17.03;71.40
55291;BME280;41155;39.768;2.712;2023-04-23T00:33:11;100916.78;;;17.11;70.86
55291;BME280;41155;39.768;2.712;2023-04-23T00:35:36;100915.16;;;17.10;70.68
55291;BME280;41155;39.768;2.712;2023-04-23T00:38:02;100917.06;;;17.09;70.61
55291;BME280;41155;39.768;2.712;2023-04-23T00:40:27;100942.69;;;17.13;71.16
55291;BME280;41155;39.768;2.712;2023-04-23T00:42:53;100912.59;;;16.94;71.08
55291;BME280;41155;39.768;2.712;2023-04-23T00:45:20;100923.63;;;16.84;71.71
55291;BME280;41155;39.768;2.712;2023-04-23T00:47:46;100937.03;;;16.81;72.09
55291;BME280;41155;39.768;2.712;2023-04-23T00:50:12;100933.66;;;16.55;71.91
55291;BME280;41155;39.768;2.712;2023-04-23T00:52:38;100923.63;;;16.50;71.88
55291;BME280;41155;39.768;2.712;2023-04-23T00:55:05;100920.13;;;16.44;71.91
55291;BME280;41155;39.768;2.712;2023-04-23T00:57:33;100929.66;;;16.47;71.66
55291;BME280;41155;39.768;2.712;2023-04-23T00:59:59;100926.88;;;16.52;71.29
55291;BME280;41155;39.768;2.712;2023-04-23T01:02:25;100925.00;;;16.47;71.31
55291;BME280;41155;39.768;2.712;2023-04-23T01:04:53;100917.34;;;16.49;71.28
55291;BME280;41155;39.768;2.712;2023-04-23T01:07:20;100928.13;;;16.65;70.63
55291;BME280;41155;39.768;2.712;2023-04-23T01:09:46;100928.38;;;16.63;70.51
55291;BME280;41155;39.768;2.712;2023-04-23T01:12:12;100922.25;;;16.53;70.28
55291;BME280;41155;39.768;2.712;2023-04-23T01:14:40;100929.47;;;16.67;70.74
55291;BME280;41155;39.768;2.712;2023-04-23T01:17:05;100908.81;;;16.61;70.42
55291;BME280;41155;39.768;2.712;2023-04-23T01:19:32;100929.22;;;16.64;70.24
55291;BME280;41155;39.768;2.712;2023-04-23T01:21:59;100928.69;;;16.62;70.80
55291;BME280;41155;39.768;2.712;2023-04-23T01:24:27;100919.22;;;16.54;70.67
55291;BME280;41155;39.768;2.712;2023-04-23T01:26:54;100929.41;;;16.43;71.55
55291;BME280;41155;39.768;2.712;2023-04-23T01:29:20;100923.69;;;16.40;71.32
55291;BME280;41155;39.768;2.712;2023-04-23T01:31:46;100932.13;;;16.43;71.60
55291;BME280;41155;39.768;2.712;2023-04-23T01:34:13;100897.34;;;16.30;71.49
55291;BME280;41155;39.768;2.712;2023-04-23T01:36:39;100921.22;;;16.43;71.95
55291;BME280;41155;39.768;2.712;2023-04-23T01:39:06;100922.34;;;16.37;71.86
55291;BME280;41155;39.768;2.712;2023-04-23T01:41:32;100900.66;;;16.27;71.75
55291;BME280;41155;39.768;2.712;2023-04-23T01:43:59;100926.16;;;16.41;71.92
55291;BME280;41155;39.768;2.712;2023-04-23T01:46:24;100903.34;;;16.32;71.88
55291;BME280;41155;39.768;2.712;2023-04-23T01:48:50;100933.72;;;16.49;71.59
55291;BME280;41155;39.768;2.712;2023-04-23T01:51:16;100941.28;;;16.58;71.44
55291;BME280;41155;39.768;2.712;2023-04-23T01:53:41;100919.63;;;16.37;71.40
55291;BME280;41155;39.768;2.712;2023-04-23T01:56:07;100936.44;;;16.49;71.47
55291;BME280;41155;39.768;2.712;2023-04-23T01:58:34;100929.88;;;16.50;71.35
55291;BME280;41155;39.768;2.712;2023-04-23T02:00:59;100930.72;;;16.46;71.39
55291;BME280;41155;39.768;2.712;2023-04-23T02:03:25;100918.44;;;16.48;71.15
55291;BME280;41155;39.768;2.712;2023-04-23T02:05:51;100886.72;;;16.28;71.20
55291;BME280;41155;39.768;2.712;2023-04-23T02:08:18;100897.28;;;16.40;71.38
55291;BME280;41155;39.768;2.712;2023-04-23T02:10:43;100879.97;;;16.26;71.51
55291;BME280;41155;39.768;2.712;2023-04-23T02:13:09;100885.59;;;16.35;71.60
55291;BME280;41155;39.768;2.712;2023-04-23T02:15:34;100889.94;;;16.36;71.40
55291;BME280;41155;39.768;2.712;2023-04-23T02:18:02;100873.34;;;16.32;71.52
55291;BME280;41155;39.768;2.712;2023-04-23T02:20:28;100874.72;;;16.35;71.79
55291;BME280;41155;39.768;2.712;2023-04-23T02:22:54;100862.69;;;16.36;71.51
55291;BME280;41155;39.768;2.712;2023-04-23T02:25:20;100864.44;;;16.21;72.13
55291;BME280;41155;39.768;2.712;2023-04-23T02:27:47;100849.53;;;16.14;71.86
55291;BME280;41155;39.768;2.712;2023-04-23T02:30:13;100853.78;;;16.25;71.44
55291;BME280;41155;39.768;2.712;2023-04-23T02:32:38;100880.44;;;16.33;71.84
55291;BME280;41155;39.768;2.712;2023-04-23T02:35:04;100849.09;;;15.96;71.92
55291;BME280;41155;39.768;2.712;2023-04-23T02:37:34;100887.63;;;16.19;71.91
55291;BME280;41155;39.768;2.712;2023-04-23T02:40:01;100890.69;;;16.12;71.71
55291;BME280;41155;39.768;2.712;2023-04-23T02:42:29;100920.53;;;16.27;71.68
55291;BME280;41155;39.768;2.712;2023-04-23T02:44:54;100926.06;;;16.17;72.21
55291;BME280;41155;39.768;2.712;2023-04-23T02:47:20;100938.84;;;16.17;72.57
55291;BME280;41155;39.768;2.712;2023-04-23T02:49:45;100915.03;;;15.93;72.78
55291;BME280;41155;39.768;2.712;2023-04-23T02:52:11;100946.06;;;15.97;73.13
55291;BME280;41155;39.768;2.712;2023-04-23T02:54:36;100943.63;;;15.96;73.50
55291;BME280;41155;39.768;2.712;2023-04-23T02:57:03;100945.00;;;15.93;73.56
55291;BME280;41155;39.768;2.712;2023-04-23T02:59:28;100955.31;;;15.96;73.68
55291;BME280;41155;39.768;2.712;2023-04-23T03:01:54;100952.91;;;15.95;73.97
55291;BME280;41155;39.768;2.712;2023-04-23T03:04:20;100936.38;;;15.76;74.47
55291;BME280;41155;39.768;2.712;2023-04-23T03:06:45;100946.09;;;15.92;74.15
55291;BME280;41155;39.768;2.712;2023-04-23T03:09:12;100936.34;;;15.81;74.11
55291;BME280;41155;39.768;2.712;2023-04-23T03:11:38;100913.28;;;15.63;74.20
55291;BME280;41155;39.768;2.712;2023-04-23T03:14:03;100954.81;;;15.94;74.43
55291;BME280;41155;39.768;2.712;2023-04-23T03:16:29;100941.41;;;16.03;74.27
55291;BME280;41155;39.768;2.712;2023-04-23T03:18:56;100922.97;;;15.90;73.87
55291;BME280;41155;39.768;2.712;2023-04-23T03:21:22;100898.75;;;15.88;73.57
55291;BME280;41155;39.768;2.712;2023-04-23T03:23:48;100939.91;;;16.26;73.26
55291;BME280;41155;39.768;2.712;2023-04-23T03:26:13;100935.97;;;16.37;73.02
55291;BME280;41155;39.768;2.712;2023-04-23T03:28:39;100944.66;;;16.44;72.85
55291;BME280;41155;39.768;2.712;2023-04-23T03:31:04;100938.59;;;16.53;72.04
55291;BME280;41155;39.768;2.712;2023-04-23T03:33:30;100949.50;;;16.53;72.16
55291;BME280;41155;39.768;2.712;2023-04-23T03:35:55;100947.81;;;16.57;71.97
55291;BME280;41155;39.768;2.712;2023-04-23T03:38:21;100942.31;;;16.62;71.99
55291;BME280;41155;39.768;2.712;2023-04-23T03:40:46;100934.19;;;16.57;72.23
55291;BME280;41155;39.768;2.712;2023-04-23T03:43:12;100918.94;;;16.56;71.75
55291;BME280;41155;39.768;2.712;2023-04-23T03:45:37;100944.84;;;16.87;71.28
55291;BME280;41155;39.768;2.712;2023-04-23T03:48:03;100931.84;;;16.79;71.26
55291;BME280;41155;39.768;2.712;2023-04-23T03:50:28;100928.59;;;16.72;71.30
55291;BME280;41155;39.768;2.712;2023-04-23T03:52:54;100941.31;;;16.87;70.79
55291;BME280;41155;39.768;2.712;2023-04-23T03:55:19;100950.31;;;16.87;70.76
55291;BME280;41155;39.768;2.712;2023-04-23T03:57:45;100955.81;;;16.82;71.46
55291;BME280;41155;39.768;2.712;2023-04-23T04:00:11;100943.41;;;16.95;70.98
55291;BME280;41155;39.768;2.712;2023-04-23T04:02:37;100930.41;;;16.87;70.99
55291;BME280;41155;39.768;2.712;2023-04-23T04:05:04;100946.13;;;16.95;71.03
55291;BME280;41155;39.768;2.712;2023-04-23T04:07:30;100948.53;;;17.02;71.27
55291;BME280;41155;39.768;2.712;2023-04-23T04:09:56;100950.25;;;16.92;71.09
55291;BME280;41155;39.768;2.712;2023-04-23T04:12:21;100931.16;;;16.92;71.08
55291;BME280;41155;39.768;2.712;2023-04-23T04:14:47;100958.63;;;17.01;71.46
55291;BME280;41155;39.768;2.712;2023-04-23T04:17:12;100929.34;;;16.83;71.61
55291;BME280;41155;39.768;2.712;2023-04-23T04:19:41;100950.31;;;16.87;72.25
55291;BME280;41155;39.768;2.712;2023-04-23T04:22:07;100960.78;;;17.04;71.83
55291;BME280;41155;39.768;2.712;2023-04-23T04:24:33;100931.22;;;16.87;71.46
55291;BME280;41155;39.768;2.712;2023-04-23T04:27:00;100956.94;;;17.05;71.87
55291;BME280;41155;39.768;2.712;2023-04-23T04:29:26;100940.00;;;17.08;71.19
55291;BME280;41155;39.768;2.712;2023-04-23T04:31:53;100956.59;;;17.12;71.21
55291;BME280;41155;39.768;2.712;2023-04-23T04:34:18;100926.84;;;16.86;71.57
55291;BME280;41155;39.768;2.712;2023-04-23T04:36:44;100964.28;;;17.10;71.20
55291;BME280;41155;39.768;2.712;2023-04-23T04:39:12;100958.06;;;17.04;70.90
55291;BME280;41155;39.768;2.712;2023-04-23T04:41:39;100966.94;;;17.15;70.72
55291;BME280;41155;39.768;2.712;2023-04-23T04:44:06;100964.97;;;17.21;70.32
55291;BME280;41155;39.768;2.712;2023-04-23T04:46:35;100954.97;;;17.11;69.93
55291;BME280;41155;39.768;2.712;2023-04-23T04:49:11;100957.66;;;17.16;70.04
55291;BME280;41155;39.768;2.712;2023-04-23T04:51:37;100918.31;;;16.98;69.58
55291;BME280;41155;39.768;2.712;2023-04-23T04:54:03;100958.88;;;17.29;69.69
55291;BME280;41155;39.768;2.712;2023-04-23T04:56:29;100942.44;;;17.10;69.85
55291;BME280;41155;39.768;2.712;2023-04-23T04:58:54;100951.56;;;17.24;69.93
55291;BME280;41155;39.768;2.712;2023-04-23T05:01:21;100966.84;;;17.25;70.21
55291;BME280;41155;39.768;2.712;2023-04-23T05:03:49;100977.69;;;17.30;70.38
55291;BME280;41155;39.768;2.712;2023-04-23T05:06:14;100938.44;;;17.02;70.08
55291;BME280;41155;39.768;2.712;2023-04-23T05:08:40;100957.41;;;17.12;70.41
55291;BME280;41155;39.768;2.712;2023-04-23T05:11:06;100966.88;;;17.20;70.83
55291;BME280;41155;39.768;2.712;2023-04-23T05:13:32;100966.53;;;17.27;70.64
55291;BME280;41155;39.768;2.712;2023-04-23T05:15:57;100967.22;;;17.13;71.15
55291;BME280;41155;39.768;2.712;2023-04-23T05:18:23;100955.91;;;17.01;71.33
55291;BME280;41155;39.768;2.712;2023-04-23T05:20:48;100963.75;;;17.08;71.37
55291;BME280;41155;39.768;2.712;2023-04-23T05:23:15;100968.44;;;17.02;71.45
55291;BME280;41155;39.768;2.712;2023-04-23T05:25:40;100969.25;;;17.03;71.42
55291;BME280;41155;39.768;2.712;2023-04-23T05:28:06;100947.00;;;16.90;71.58
55291;BME280;41155;39.768;2.712;2023-04-23T05:30:32;100972.13;;;16.87;72.11
55291;BME280;41155;39.768;2.712;2023-04-23T05:32:58;100964.03;;;16.72;71.95
55291;BME280;41155;39.768;2.712;2023-04-23T05:35:24;100977.13;;;16.75;71.93
55291;BME280;41155;39.768;2.712;2023-04-23T05:37:49;100977.66;;;16.72;71.86
55291;BME280;41155;39.768;2.712;2023-04-23T05:40:15;100966.91;;;16.57;72.28
55291;BME280;41155;39.768;2.712;2023-04-23T05:42:41;100959.25;;;16.59;72.18
55291;BME280;41155;39.768;2.712;2023-04-23T05:45:07;100992.41;;;16.71;72.20
55291;BME280;41155;39.768;2.712;2023-04-23T05:47:32;100979.84;;;16.75;72.24
55291;BME280;41155;39.768;2.712;2023-04-23T05:49:58;101009.31;;;16.73;72.75
55291;BME280;41155;39.768;2.712;2023-04-23T05:52:23;100978.94;;;16.50;73.07
55291;BME280;41155;39.768;2.712;2023-04-23T05:54:49;101009.94;;;16.60;73.25
55291;BME280;41155;39.768;2.712;2023-04-23T05:57:15;100999.19;;;16.73;72.99
55291;BME280;41155;39.768;2.712;2023-04-23T05:59:41;100990.84;;;16.60;73.19
55291;BME280;41155;39.768;2.712;2023-04-23T06:02:08;101001.78;;;16.55;73.99
55291;BME280;41155;39.768;2.712;2023-04-23T06:04:35;100999.03;;;16.60;73.75
55291;BME280;41155;39.768;2.712;2023-04-23T06:07:01;101004.50;;;16.60;74.00
55291;BME280;41155;39.768;2.712;2023-04-23T06:09:26;101000.94;;;16.59;73.92
55291;BME280;41155;39.768;2.712;2023-04-23T06:11:52;100996.03;;;16.61;73.62
55291;BME280;41155;39.768;2.712;2023-04-23T06:14:18;100981.34;;;16.57;73.58
55291;BME280;41155;39.768;2.712;2023-04-23T06:16:43;100989.78;;;16.61;72.15
55291;BME280;41155;39.768;2.712;2023-04-23T06:19:09;100992.09;;;16.43;72.90
55291;BME280;41155;39.768;2.712;2023-04-23T06:21:35;100994.72;;;16.54;72.22
55291;BME280;41155;39.768;2.712;2023-04-23T06:24:01;100996.44;;;16.44;72.67
55291;BME280;41155;39.768;2.712;2023-04-23T06:26:27;101000.69;;;16.61;72.13
55291;BME280;41155;39.768;2.712;2023-04-23T06:28:52;100998.97;;;16.70;72.18
55291;BME280;41155;39.768;2.712;2023-04-23T06:31:18;100971.94;;;16.73;71.31
55291;BME280;41155;39.768;2.712;2023-04-23T06:33:43;100999.97;;;16.84;72.04
55291;BME280;41155;39.768;2.712;2023-04-23T06:36:09;101006.50;;;16.83;72.03
55291;BME280;41155;39.768;2.712;2023-04-23T06:38:35;101001.50;;;16.96;71.58
55291;BME280;41155;39.768;2.712;2023-04-23T06:41:02;100994.41;;;16.94;71.14
55291;BME280;41155;39.768;2.712;2023-04-23T06:43:28;101013.56;;;17.19;70.86
55291;BME280;41155;39.768;2.712;2023-04-23T06:45:53;101013.50;;;17.24;71.12
55291;BME280;41155;39.768;2.712;2023-04-23T06:48:19;101016.09;;;17.39;69.95
55291;BME280;41155;39.768;2.712;2023-04-23T06:50:46;101000.56;;;17.34;69.47
55291;BME280;41155;39.768;2.712;2023-04-23T06:53:12;101005.97;;;17.39;68.91
55291;BME280;41155;39.768;2.712;2023-04-23T06:55:37;101020.25;;;17.55;68.51
55291;BME280;41155;39.768;2.712;2023-04-23T06:58:03;101008.53;;;17.55;68.18
55291;BME280;41155;39.768;2.712;2023-04-23T07:00:31;101032.06;;;17.75;67.54
55291;BME280;41155;39.768;2.712;2023-04-23T07:02:57;101007.31;;;17.66;67.55
55291;BME280;41155;39.768;2.712;2023-04-23T07:05:23;101007.66;;;17.83;66.89
55291;BME280;41155;39.768;2.712;2023-04-23T07:07:48;101011.44;;;17.88;66.42
55291;BME280;41155;39.768;2.712;2023-04-23T07:10:13;101031.78;;;18.00;66.70
55291;BME280;41155;39.768;2.712;2023-04-23T07:12:39;101026.25;;;18.24;66.04
55291;BME280;41155;39.768;2.712;2023-04-23T07:15:05;100983.78;;;17.94;66.57
55291;BME280;41155;39.768;2.712;2023-04-23T07:17:32;101014.72;;;18.27;66.68
55291;BME280;41155;39.768;2.712;2023-04-23T07:19:57;101030.59;;;18.44;66.36
55291;BME280;41155;39.768;2.712;2023-04-23T07:22:24;101029.28;;;18.61;66.02
55291;BME280;41155;39.768;2.712;2023-04-23T07:24:50;101012.75;;;18.66;65.31
55291;BME280;41155;39.768;2.712;2023-04-23T07:27:15;101022.91;;;18.84;65.09
55291;BME280;41155;39.768;2.712;2023-04-23T07:29:41;101015.22;;;19.00;64.31
55291;BME280;41155;39.768;2.712;2023-04-23T07:32:06;100997.19;;;18.99;64.20
55291;BME280;41155;39.768;2.712;2023-04-23T07:34:32;101012.25;;;19.15;64.02
55291;BME280;41155;39.768;2.712;2023-04-23T07:36:57;101010.41;;;19.11;64.21
55291;BME280;41155;39.768;2.712;2023-04-23T07:39:23;101010.31;;;19.16;63.97
55291;BME280;41155;39.768;2.712;2023-04-23T07:41:49;101012.97;;;19.21;63.76
55291;BME280;41155;39.768;2.712;2023-04-23T07:44:14;101027.16;;;19.37;63.42
55291;BME280;41155;39.768;2.712;2023-04-23T07:46:40;101028.19;;;19.55;62.89
55291;BME280;41155;39.768;2.712;2023-04-23T07:49:06;100996.84;;;19.33;62.19
55291;BME280;41155;39.768;2.712;2023-04-23T07:51:32;101030.78;;;19.65;62.34
55291;BME280;41155;39.768;2.712;2023-04-23T07:53:57;101026.69;;;19.62;61.37
55291;BME280;41155;39.768;2.712;2023-04-23T07:56:23;101027.19;;;19.78;61.09
55291;BME280;41155;39.768;2.712;2023-04-23T07:58:49;101027.53;;;19.77;60.98
55291;BME280;41155;39.768;2.712;2023-04-23T08:01:15;101013.31;;;19.75;60.40
55291;BME280;41155;39.768;2.712;2023-04-23T08:03:41;101038.84;;;20.12;59.36
55291;BME280;41155;39.768;2.712;2023-04-23T08:06:09;101015.00;;;19.98;59.16
55291;BME280;41155;39.768;2.712;2023-04-23T08:08:34;101035.88;;;20.22;57.21
55291;BME280;41155;39.768;2.712;2023-04-23T08:11:00;101044.41;;;20.20;57.60
55291;BME280;41155;39.768;2.712;2023-04-23T08:13:25;101024.16;;;20.30;58.50
55291;BME280;41155;39.768;2.712;2023-04-23T08:15:51;101041.78;;;20.51;58.78
55291;BME280;41155;39.768;2.712;2023-04-23T08:18:16;101045.94;;;20.63;58.69
55291;BME280;41155;39.768;2.712;2023-04-23T08:20:42;101042.94;;;20.73;58.96
55291;BME280;41155;39.768;2.712;2023-04-23T08:23:07;101030.59;;;20.48;59.48
55291;BME280;41155;39.768;2.712;2023-04-23T08:25:33;101049.25;;;20.73;58.88
55291;BME280;41155;39.768;2.712;2023-04-23T08:27:58;101033.09;;;20.72;58.89
55291;BME280;41155;39.768;2.712;2023-04-23T08:30:24;101044.63;;;20.83;58.94
55291;BME280;41155;39.768;2.712;2023-04-23T08:32:51;101036.59;;;20.86;58.75
55291;BME280;41155;39.768;2.712;2023-04-23T08:35:20;101009.28;;;20.81;58.59
55291;BME280;41155;39.768;2.712;2023-04-23T08:37:46;101030.34;;;20.94;58.64
55291;BME280;41155;39.768;2.712;2023-04-23T08:40:12;101044.50;;;21.10;58.30
55291;BME280;41155;39.768;2.712;2023-04-23T08:42:48;101050.19;;;21.22;57.80
55291;BME280;41155;39.768;2.712;2023-04-23T08:45:16;101016.91;;;21.15;57.12
55291;BME280;41155;39.768;2.712;2023-04-23T08:47:42;101034.41;;;21.28;56.71
55291;BME280;41155;39.768;2.712;2023-04-23T08:50:10;101033.38;;;21.38;56.60
55291;BME280;41155;39.768;2.712;2023-04-23T08:52:39;101026.78;;;21.48;56.17
55291;BME280;41155;39.768;2.712;2023-04-23T08:55:07;101045.97;;;21.79;55.92
55291;BME280;41155;39.768;2.712;2023-04-23T08:57:38;101045.00;;;21.83;55.62
55291;BME280;41155;39.768;2.712;2023-04-23T09:00:06;101005.69;;;21.74;55.58
55291;BME280;41155;39.768;2.712;2023-04-23T09:02:33;101041.16;;;22.02;55.41
55291;BME280;41155;39.768;2.712;2023-04-23T09:05:02;101048.19;;;22.25;54.67
55291;BME280;41155;39.768;2.712;2023-04-23T09:07:28;101013.09;;;22.22;54.46
55291;BME280;41155;39.768;2.712;2023-04-23T09:09:54;101032.34;;;22.48;54.66
55291;BME280;41155;39.768;2.712;2023-04-23T09:12:20;101035.41;;;22.55;53.81
55291;BME280;41155;39.768;2.712;2023-04-23T09:14:48;101037.03;;;22.74;53.11
55291;BME280;41155;39.768;2.712;2023-04-23T09:17:14;101046.22;;;23.13;52.37
55291;BME280;41155;39.768;2.712;2023-04-23T09:19:40;101045.59;;;23.45;51.45
55291;BME280;41155;39.768;2.712;2023-04-23T09:22:06;101043.06;;;23.79;50.51
55291;BME280;41155;39.768;2.712;2023-04-23T09:24:33;101037.22;;;24.31;49.30
55291;BME280;41155;39.768;2.712;2023-04-23T09:26:58;101026.97;;;24.73;47.96
55291;BME280;41155;39.768;2.712;2023-04-23T09:29:24;101036.25;;;25.35;46.15
55291;BME280;41155;39.768;2.712;2023-04-23T09:31:53;101036.75;;;25.99;45.10
55291;BME280;41155;39.768;2.712;2023-04-23T09:34:20;101045.31;;;26.74;43.19
55291;BME280;41155;39.768;2.712;2023-04-23T09:36:47;101051.72;;;27.07;42.47
55291;BME280;41155;39.768;2.712;2023-04-23T09:39:16;101018.91;;;27.88;40.33
55291;BME280;41155;39.768;2.712;2023-04-23T09:41:43;101055.28;;;28.53;39.35
55291;BME280;41155;39.768;2.712;2023-04-23T09:44:10;101061.25;;;29.14;38.03
55291;BME280;41155;39.768;2.712;2023-04-23T09:46:40;101059.75;;;29.43;36.76
55291;BME280;41155;39.768;2.712;2023-04-23T09:49:07;101057.16;;;30.03;35.96
55291;BME280;41155;39.768;2.712;2023-04-23T09:51:37;101042.28;;;31.23;33.14
55291;BME280;41155;39.768;2.712;2023-04-23T09:54:10;101048.94;;;33.20;29.96
55291;BME280;41155;39.768;2.712;2023-04-23T09:56:36;101071.63;;;32.83;30.11
55291;BME280;41155;39.768;2.712;2023-04-23T09:59:01;101054.59;;;34.87;27.52
55291;BME280;41155;39.768;2.712;2023-04-23T10:01:28;101040.34;;;34.56;26.74
55291;BME280;41155;39.768;2.712;2023-04-23T10:03:54;101087.69;;;37.10;24.19
55291;BME280;41155;39.768;2.712;2023-04-23T10:06:30;101089.09;;;38.16;22.75
55291;BME280;41155;39.768;2.712;2023-04-23T10:08:56;101071.19;;;38.66;22.12
55291;BME280;41155;39.768;2.712;2023-04-23T10:11:23;101094.34;;;36.93;24.54
55291;BME280;41155;39.768;2.712;2023-04-23T10:13:50;101094.13;;;37.10;23.58
55291;BME280;41155;39.768;2.712;2023-04-23T10:16:17;101081.00;;;37.00;23.61
55291;BME280;41155;39.768;2.712;2023-04-23T10:18:44;101095.22;;;39.43;21.80
55291;BME280;41155;39.768;2.712;2023-04-23T10:21:11;101091.13;;;40.64;20.34
55291;BME280;41155;39.768;2.712;2023-04-23T10:23:41;101052.38;;;38.96;21.44
55291;BME280;41155;39.768;2.712;2023-04-23T10:26:10;101086.28;;;40.36;20.40
55291;BME280;41155;39.768;2.712;2023-04-23T10:28:39;101080.81;;;40.58;19.94
55291;BME280;41155;39.768;2.712;2023-04-23T10:31:05;101078.78;;;38.09;23.12
55291;BME280;41155;39.768;2.712;2023-04-23T10:33:31;101065.56;;;40.94;20.37
55291;BME280;41155;39.768;2.712;2023-04-23T10:35:58;101091.38;;;41.34;19.84
55291;BME280;41155;39.768;2.712;2023-04-23T10:38:25;101078.53;;;42.78;17.84
55291;BME280;41155;39.768;2.712;2023-04-23T10:40:54;101079.94;;;43.14;17.59
55291;BME280;41155;39.768;2.712;2023-04-23T10:43:21;101073.41;;;40.35;20.24
55291;BME280;41155;39.768;2.712;2023-04-23T10:45:48;101073.88;;;43.52;17.90
55291;BME280;41155;39.768;2.712;2023-04-23T10:48:14;101078.31;;;42.41;18.49
55291;BME280;41155;39.768;2.712;2023-04-23T10:50:39;101050.41;;;42.17;18.27
55291;BME280;41155;39.768;2.712;2023-04-23T10:53:17;101084.56;;;41.92;18.88
55291;BME280;41155;39.768;2.712;2023-04-23T10:55:43;101080.56;;;39.48;21.29
55291;BME280;41155;39.768;2.712;2023-04-23T10:58:08;101086.53;;;40.83;19.83
55291;BME280;41155;39.768;2.712;2023-04-23T11:03:36;101082.59;;;41.67;19.41
55291;BME280;41155;39.768;2.712;2023-04-23T11:06:07;101071.84;;;40.05;20.44
55291;BME280;41155;39.768;2.712;2023-04-23T11:08:36;101085.97;;;37.90;22.82
55291;BME280;41155;39.768;2.712;2023-04-23T11:11:06;101089.75;;;40.56;21.02
55291;BME280;41155;39.768;2.712;2023-04-23T11:13:32;101090.34;;;40.64;20.49
55291;BME280;41155;39.768;2.712;2023-04-23T11:16:20;101086.25;;;38.96;22.36
55291;BME280;41155;39.768;2.712;2023-04-23T11:19:02;101093.16;;;39.11;22.27
55291;BME280;41155;39.768;2.712;2023-04-23T11:22:28;101098.59;;;37.82;23.79
55291;BME280;41155;39.768;2.712;2023-04-23T11:24:36;101088.31;;;38.75;22.58
55291;BME280;41155;39.768;2.712;2023-04-23T11:27:08;101075.13;;;37.15;24.41
55291;BME280;41155;39.768;2.712;2023-04-23T11:29:35;101086.94;;;37.80;23.88
55291;BME280;41155;39.768;2.712;2023-04-23T11:32:01;101081.53;;;37.19;24.80
55291;BME280;41155;39.768;2.712;2023-04-23T11:34:27;101057.22;;;34.38;28.08
55291;BME280;41155;39.768;2.712;2023-04-23T11:36:54;101070.97;;;35.59;26.20
55291;BME280;41155;39.768;2.712;2023-04-23T11:39:21;101075.28;;;35.18;26.90
55291;BME280;41155;39.768;2.712;2023-04-23T11:41:51;101068.91;;;36.04;26.63
55291;BME280;41155;39.768;2.712;2023-04-23T11:44:17;101070.78;;;36.52;25.12
55291;BME280;41155;39.768;2.712;2023-04-23T11:46:45;101055.38;;;35.47;26.28
55291;BME280;41155;39.768;2.712;2023-04-23T11:49:11;101061.16;;;35.78;26.03
55291;BME280;41155;39.768;2.712;2023-04-23T11:51:42;101059.94;;;36.54;25.63
55291;BME280;41155;39.768;2.712;2023-04-23T11:54:10;101050.81;;;36.74;25.33
55291;BME280;41155;39.768;2.712;2023-04-23T11:56:36;101047.72;;;37.89;23.23
55291;BME280;41155;39.768;2.712;2023-04-23T11:59:03;101047.34;;;41.07;20.26
55291;BME280;41155;39.768;2.712;2023-04-23T12:01:42;101031.03;;;40.73;20.18
55291;BME280;41155;39.768;2.712;2023-04-23T12:04:09;101026.75;;;39.85;21.35
55291;BME280;41155;39.768;2.712;2023-04-23T12:06:35;101035.09;;;39.26;22.14
55291;BME280;41155;39.768;2.712;2023-04-23T12:09:00;101027.38;;;38.21;23.04
55291;BME280;41155;39.768;2.712;2023-04-23T12:11:26;101026.41;;;39.83;21.28
55291;BME280;41155;39.768;2.712;2023-04-23T12:13:51;101045.75;;;39.84;21.19
55291;BME280;41155;39.768;2.712;2023-04-23T12:16:32;101050.78;;;39.60;21.69
55291;BME280;41155;39.768;2.712;2023-04-23T12:18:59;101055.34;;;37.69;23.27
55291;BME280;41155;39.768;2.712;2023-04-23T12:21:25;101053.75;;;39.86;21.26
55291;BME280;41155;39.768;2.712;2023-04-23T12:23:53;101029.63;;;39.19;21.57
55291;BME280;41155;39.768;2.712;2023-04-23T12:26:19;101042.84;;;36.96;24.54
55291;BME280;41155;39.768;2.712;2023-04-23T12:28:55;101041.13;;;39.12;22.23
55291;BME280;41155;39.768;2.712;2023-04-23T12:31:27;101039.81;;;39.33;21.85
55291;BME280;41155;39.768;2.712;2023-04-23T12:33:57;101036.84;;;38.87;22.23
55291;BME280;41155;39.768;2.712;2023-04-23T12:36:27;101023.81;;;39.26;21.72
55291;BME280;41155;39.768;2.712;2023-04-23T12:39:24;101018.78;;;38.09;23.01
55291;BME280;41155;39.768;2.712;2023-04-23T12:41:52;101026.75;;;37.94;23.42
55291;BME280;41155;39.768;2.712;2023-04-23T12:44:17;101024.50;;;39.14;21.84
55291;BME280;41155;39.768;2.712;2023-04-23T12:46:43;101012.69;;;39.19;21.36
55291;BME280;41155;39.768;2.712;2023-04-23T12:49:08;101023.13;;;39.84;20.98
55291;BME280;41155;39.768;2.712;2023-04-23T12:51:34;101025.22;;;38.29;23.14